Pagrindinis puslapis
METAR-TAF:

METAR-TAF

Oro uostai :

Samas, Graikija

platuma: 37-42N, ilguma: 026-55E, Aukštis: 2 m

Dabartinis oras

Ataskaita buvo paskelbta 54 minutes, ne 19:50 UTC
Vėjas 14 kt iš Šiaurės
Temperatūra 10°C
Drėgmė 66%
Slėgis 1024 hPa
Matomumas 10 km arba daugiau
Mažai debesys ne aukštis 2000 ft

METAR: LGSM 021950Z 01014KT 9999 FEW020 10/04 Q1024

Laikas: 22:44 (20:44 UTC)

Prognozė

Ataskaita buvo paskelbta 44 minutes, ne 20:00 UTC
Prognozė galioja nuo 02 metu 21 UTC su 03 metu 06 UTC
Vėjas 15 kt iš Šiaurės
Matomumas 10 km arba daugiau
Mažai debesys ne aukštis 2000 ft
Laikinai
nuo 02 metu 21 UTC su 03 metu 06 UTC
Vėjas 15 kt iš Šiaurės su gūsio iki 25 kt

TAF: LGSM 022000Z 0221/0306 36015KT 9999 FEW020 TEMPO 0221/0306 36015G25KT

Orai ataskaitas ir orų prognozės (METAR, TAF).

turimą stotys yra geltonos ir raudonos taškus žemėlapyje.

Perkelti pele per norėdami pamatyti stoties vardą.

Tada spustelėkite, norėdami matyti oro stebėjimo ir prognozės.

Norėdami pakeisti žemėlapį: spustelėkite ant žalios mygtukų su juodo kryžiaus žemyn,; žalią mygtuką su brūkšneliu, jei norite nutolinti; arba žalių rodyklių gretimoms žemėlapius.


METAR-TAF: